Weather reports worldwide

Advertisment
Malaga,Cmt, Spain (8481): temperature & dewpoint: 20.09.2018 11:00:00 - 26.09.2018 11:00:00 (CEST)Malaga,Cmt, Spain (8481): wind speed & gusts: 20.09.2018 11:00:00 - 26.09.2018 11:00:00 (CEST)Malaga,Cmt, Spain (8481): wind direction: 20.09.2018 11:00:00 - 26.09.2018 11:00:00 (CEST)Malaga,Cmt, Spain (8481): reduced air pressure: 20.09.2018 11:00:00 - 26.09.2018 11:00:00 (CEST)Malaga,Cmt, Spain (8481): precipitation: 20.09.2018 11:00:00 - 26.09.2018 11:00:00 (CEST)
Date & Time tt [°C] td [°C] ff [km/h] ff [kn] fx [km/h] fx [kn] dd ppp [hPa] rr [mm]
26.09.2018 11:00:00 25,6 22,3 9 5 14 8 S 1025,1 0,0
26.09.2018 10:00:00 24,3 22,4 6 3 11 6 S 1024,7 0,0
26.09.2018 09:00:00 23,9 22,3 5 3 11 6 S 1024,3 0,0
26.09.2018 08:00:00 23,9 22,3 8 4 16 8 S 1023,7 -
26.09.2018 07:00:00 24,1 22,5 8 4 17 9 S 1023,4 0,0
26.09.2018 06:00:00 24,4 22,6 9 5 19 10 S 1023,0 0,0
26.09.2018 05:00:00 24,4 22,4 10 6 18 10 S 1023,1 0,0
26.09.2018 04:00:00 24,6 22,7 9 5 17 9 S 1023,3 0,0
26.09.2018 03:00:00 24,8 23,0 6 4 17 9 S 1023,4 0,0
26.09.2018 02:00:00 24,9 22,7 8 4 13 7 S 1023,6 -
26.09.2018 01:00:00 25,0 22,3 8 4 13 7 SE 1023,2 0,0
26.09.2018 00:00:00 24,8 22,1 5 3 11 6 SSE 1022,8 0,0
25.09.2018 23:00:00 24,8 21,7 6 3 12 7 ESE 1022,2 0,0
25.09.2018 22:00:00 25,0 21,7 4 2 13 7 SE 1021,6 0,0
25.09.2018 21:00:00 25,3 21,6 7 4 16 8 SE 1020,9 0,0
25.09.2018 20:00:00 - - - - - - - - -
25.09.2018 19:00:00 27,2 20,8 11 6 20 11 SE 1020,7 0,0
25.09.2018 18:00:00 28,9 20,6 12 7 23 12 SSE 1020,7 0,0
25.09.2018 17:00:00 29,7 20,5 11 6 23 12 S 1020,8 0,0
25.09.2018 16:00:00 29,0 19,3 11 6 21 12 SSE 1021,2 0,0
25.09.2018 15:00:00 29,8 21,4 10 6 23 12 SSE 1022,0 0,0
25.09.2018 14:00:00 29,3 22,0 14 7 27 14 SSE 1022,4 -
25.09.2018 13:00:00 29,4 18,8 12 6 22 12 SSE 1022,4 0,0
25.09.2018 12:00:00 29,8 16,6 10 6 17 9 SSE 1022,2 0,0
25.09.2018 11:00:00 26,8 13,6 5 3 9 5 W 1021,7 0,0
25.09.2018 10:00:00 22,7 12,6 7 4 11 6 W 1021,4 0,0
25.09.2018 09:00:00 19,6 11,3 6 4 11 6 W 1021,1 0,0
25.09.2018 08:00:00 19,6 11,9 4 2 9 5 W 1020,6 -
25.09.2018 07:00:00 20,0 11,8 3 2 7 4 W 1020,3 0,0
25.09.2018 06:00:00 20,3 11,8 4 2 8 4 W 1020,2 0,0
25.09.2018 05:00:00 21,6 12,2 1 0 7 4 N 1020,2 0,0
25.09.2018 04:00:00 21,6 12,2 4 2 7 4 WNW 1020,3 0,0
25.09.2018 03:00:00 23,1 12,1 4 2 10 6 WNW 1020,4 0,0
25.09.2018 02:00:00 23,4 12,4 3 2 8 4 NW 1020,6 -
25.09.2018 01:00:00 24,1 13,1 5 3 8 5 W 1020,7 0,0
25.09.2018 00:00:00 25,3 13,9 4 2 7 4 N 1020,4 0,0
24.09.2018 23:00:00 25,7 15,1 0 0 3 2 WSW 1019,9 0,0
24.09.2018 22:00:00 26,3 14,7 0 0 9 5 S 1019,4 0,0
24.09.2018 21:00:00 27,2 13,2 7 4 14 8 SE 1019,0 0,0
24.09.2018 20:00:00 28,5 12,4 11 6 16 9 SE 1018,8 -
24.09.2018 19:00:00 29,7 12,1 10 5 21 11 SE 1018,5 0,0
24.09.2018 18:00:00 30,8 12,2 12 6 24 13 SE 1018,7 0,0
24.09.2018 17:00:00 31,5 12,3 15 8 22 12 SE 1019,1 0,0
24.09.2018 16:00:00 33,7 13,2 12 6 22 12 SSE 1019,2 0,0
24.09.2018 15:00:00 34,8 13,1 13 7 20 11 SSE 1019,6 0,0
24.09.2018 14:00:00 34,4 13,3 11 6 18 10 SSE 1020,0 -
24.09.2018 13:00:00 33,7 14,2 5 3 13 7 SSW 1020,2 0,0
24.09.2018 12:00:00 31,3 14,9 9 5 13 7 WSW 1020,4 0,0
24.09.2018 11:00:00 27,6 14,6 8 4 14 8 W 1020,1 0,0
24.09.2018 10:00:00 24,1 13,7 8 4 13 7 WNW 1020,1 0,0
24.09.2018 09:00:00 21,5 12,3 5 3 16 9 W 1020,0 0,0
24.09.2018 08:00:00 21,7 13,1 7 4 15 8 WNW 1019,9 -
24.09.2018 07:00:00 20,3 13,5 6 3 10 5 W 1020,1 0,0
24.09.2018 06:00:00 20,6 13,8 5 3 9 5 W 1020,2 0,0
24.09.2018 05:00:00 21,4 15,0 1 1 11 6 N 1020,4 0,0
24.09.2018 04:00:00 21,8 15,4 6 4 11 6 W 1020,7 0,0
24.09.2018 03:00:00 21,8 15,4 7 4 13 7 W 1021,0 0,0
24.09.2018 02:00:00 24,3 16,3 5 3 8 5 N 1021,0 -
24.09.2018 01:00:00 24,0 16,3 3 1 8 4 WNW 1021,1 0,0
24.09.2018 00:00:00 25,0 17,0 5 3 10 5 NNW 1020,9 0,0
23.09.2018 23:00:00 25,3 17,2 5 3 8 4 NW 1021,0 0,0
23.09.2018 22:00:00 25,8 17,2 4 2 8 4 W 1020,5 0,0
23.09.2018 21:00:00 26,4 16,9 5 3 14 8 ESE 1020,4 0,0
23.09.2018 20:00:00 27,5 16,7 11 6 18 10 SSE 1020,2 -
23.09.2018 19:00:00 28,0 16,6 13 7 19 10 SE 1020,2 0,0
23.09.2018 18:00:00 29,3 14,7 12 6 20 11 SE 1020,3 0,0
23.09.2018 17:00:00 30,0 14,9 11 6 23 12 SE 1020,5 0,0
23.09.2018 16:00:00 30,1 13,0 12 6 25 13 SE 1021,0 0,0
23.09.2018 15:00:00 31,9 12,6 14 7 24 13 SSE 1021,2 0,0
23.09.2018 14:00:00 31,6 11,9 14 7 21 11 SE 1021,5 -
23.09.2018 13:00:00 31,6 12,8 8 4 16 9 SSE 1021,8 0,0
23.09.2018 12:00:00 29,5 13,3 5 3 14 7 W 1022,1 0,0
23.09.2018 11:00:00 26,7 14,1 9 5 12 7 W 1021,9 0,0
23.09.2018 10:00:00 22,4 13,8 7 4 11 6 W 1022,0 0,0
23.09.2018 09:00:00 20,8 11,7 5 3 12 6 WNW 1021,6 0,0
23.09.2018 08:00:00 19,2 13,6 7 4 11 6 W 1021,7 -
23.09.2018 07:00:00 21,0 12,4 4 2 10 5 WNW 1021,6 0,0
23.09.2018 06:00:00 20,2 14,3 4 2 9 5 NNW 1021,6 0,0
23.09.2018 05:00:00 20,7 15,0 5 3 13 7 W 1021,7 0,0
23.09.2018 04:00:00 21,4 16,4 5 3 12 6 WNW 1022,1 0,0
23.09.2018 03:00:00 22,4 16,9 5 3 11 6 NW 1022,5 0,0
23.09.2018 02:00:00 23,2 17,9 3 2 11 6 N 1022,8 -
23.09.2018 01:00:00 23,2 18,3 4 2 9 5 WNW 1023,1 0,0
23.09.2018 00:00:00 23,9 18,8 3 2 6 3 NNW 1022,9 0,0
22.09.2018 23:00:00 24,3 19,3 3 2 5 3 NW 1022,7 0,0
22.09.2018 22:00:00 24,9 19,3 0 0 6 3 N 1022,0 0,0
22.09.2018 21:00:00 25,7 18,6 5 3 16 9 SSE 1021,4 0,0
22.09.2018 20:00:00 26,8 17,9 11 6 20 11 SE 1021,0 -
22.09.2018 19:00:00 27,7 18,2 14 8 21 11 SE 1020,9 0,0
22.09.2018 18:00:00 28,8 17,1 14 7 22 12 SSE 1021,0 0,0
22.09.2018 17:00:00 28,5 18,3 11 6 22 12 SE 1021,5 0,0
22.09.2018 16:00:00 28,3 20,9 13 7 22 12 SE 1022,0 0,0
22.09.2018 15:00:00 28,7 21,4 13 7 24 13 SE 1022,5 0,0
22.09.2018 14:00:00 27,6 20,4 12 6 20 11 SE 1022,5 -
22.09.2018 13:00:00 28,4 20,9 10 5 15 8 SSE 1022,4 0,0
22.09.2018 12:00:00 27,1 20,5 7 4 13 7 SE 1022,5 0,0
22.09.2018 11:00:00 25,6 17,8 5 3 9 5 SE 1022,1 0,0
22.09.2018 10:00:00 22,2 16,0 0 0 3 2 WSW 1021,7 0,0
22.09.2018 09:00:00 19,8 14,8 0 0 1 1 N 1021,1 0,0
22.09.2018 08:00:00 19,8 15,0 0 0 7 4 NW 1020,6 -
22.09.2018 07:00:00 20,3 15,5 2 1 5 3 W 1020,3 0,0
22.09.2018 06:00:00 20,2 15,4 3 2 9 5 W 1019,8 0,0
22.09.2018 05:00:00 21,3 15,2 5 3 9 5 W 1019,9 0,0
22.09.2018 04:00:00 21,9 15,7 4 2 6 3 NNW 1020,0 0,0
22.09.2018 03:00:00 21,8 17,4 2 1 6 3 WNW 1020,3 0,0
22.09.2018 02:00:00 22,5 18,7 2 1 6 3 NW 1020,2 -
22.09.2018 01:00:00 22,8 20,7 4 2 7 4 WNW 1020,0 0,0
22.09.2018 00:00:00 23,7 22,0 3 2 6 3 WNW 1019,7 0,0
21.09.2018 23:00:00 24,0 21,7 2 1 5 3 WNW 1019,4 0,0
21.09.2018 22:00:00 24,2 21,5 4 2 9 5 S 1018,8 0,0
21.09.2018 21:00:00 24,8 21,7 6 4 16 9 SE 1018,4 0,0
21.09.2018 20:00:00 25,8 20,6 10 5 19 11 ESE 1018,1 -
21.09.2018 19:00:00 26,6 20,0 14 7 18 10 SE 1017,8 0,0
21.09.2018 18:00:00 27,7 20,3 11 6 19 10 SE 1017,8 0,0
21.09.2018 17:00:00 28,4 20,4 13 7 21 12 SSE 1018,0 0,0
21.09.2018 16:00:00 28,1 19,3 15 8 22 12 SE 1018,4 0,0
21.09.2018 15:00:00 29,1 19,4 12 7 21 11 SE 1018,7 0,0
21.09.2018 14:00:00 29,3 19,3 10 5 16 9 SSE 1019,0 -
21.09.2018 13:00:00 28,9 19,3 8 4 16 9 SSE 1019,2 0,0
21.09.2018 12:00:00 27,4 18,4 5 3 9 5 SW 1019,2 0,0
21.09.2018 11:00:00 24,8 19,0 5 3 9 5 WSW 1019,0 0,0
21.09.2018 10:00:00 22,4 19,3 5 3 7 4 WSW 1019,0 0,0
21.09.2018 09:00:00 21,1 18,7 3 2 9 5 WNW 1018,5 0,0
21.09.2018 08:00:00 21,5 19,1 4 2 15 8 NNW 1018,2 -
21.09.2018 07:00:00 21,5 19,1 9 5 15 8 NW 1017,9 0,0
21.09.2018 06:00:00 21,5 19,3 8 4 13 7 WNW 1017,9 0,0
21.09.2018 05:00:00 21,7 19,3 4 2 10 6 WNW 1018,2 0,0
21.09.2018 04:00:00 22,3 19,6 6 3 9 5 NW 1018,6 0,0
21.09.2018 03:00:00 22,2 19,9 6 3 10 5 WNW 1019,1 0,0
21.09.2018 02:00:00 22,7 20,1 5 3 8 4 WNW 1019,3 -
21.09.2018 01:00:00 23,4 20,5 5 3 8 4 W 1019,2 0,0
21.09.2018 00:00:00 24,1 20,9 3 1 5 3 SE 1019,2 0,0
20.09.2018 23:00:00 24,3 21,1 1 1 8 4 SE 1018,8 0,0
20.09.2018 22:00:00 24,4 21,1 5 3 9 5 E 1018,5 0,0
20.09.2018 21:00:00 25,3 21,2 6 3 13 7 SE 1018,2 0,0
20.09.2018 20:00:00 26,4 20,7 8 4 15 8 SSE 1018,1 -
20.09.2018 19:00:00 27,3 20,1 12 6 22 12 SE 1018,1 0,0
20.09.2018 18:00:00 27,8 20,6 13 7 21 12 SE 1018,4 0,0
20.09.2018 17:00:00 28,8 20,5 12 6 21 11 SSE 1018,9 0,0
20.09.2018 16:00:00 28,7 20,7 14 8 22 12 SSE 1019,5 0,0
20.09.2018 15:00:00 28,8 20,8 12 6 23 13 SE 1020,0 0,0
20.09.2018 14:00:00 30,0 21,1 13 7 23 12 S 1020,4 -
20.09.2018 13:00:00 28,3 21,3 10 5 18 10 SE 1020,6 0,0
20.09.2018 12:00:00 26,9 20,5 5 3 13 7 SSE 1020,9 0,0
20.09.2018 11:00:00 25,7 19,8 3 1 8 4 W 1020,3 0,0

tt = temperature
td = dewpoint
ff = wind speed
fx = gusts
dd = wind direction
ppp = reduced air pressure
rr = precipitation

Next stations